createdAt,value
2018-06-05T00:02:00.185Z,58.23
2018-06-05T00:04:03.376Z,54.33
2018-06-05T00:06:06.564Z,56.40
2018-06-05T00:08:09.772Z,53.50
2018-06-05T00:10:12.952Z,56.60
2018-06-05T00:12:16.127Z,56.10
2018-06-05T00:14:19.288Z,59.97
2018-06-05T00:16:23.445Z,61.93
2018-06-05T00:18:26.664Z,47.90
2018-06-05T00:20:29.832Z,60.00
2018-06-05T00:22:33.044Z,58.37
2018-06-05T00:24:36.200Z,57.30
2018-06-05T00:26:39.407Z,62.10
2018-06-05T00:28:43.164Z,51.40
2018-06-05T00:30:46.327Z,51.47
2018-06-05T00:32:49.559Z,52.90
2018-06-05T00:34:52.724Z,54.60
2018-06-05T00:36:55.957Z,53.60
2018-06-05T00:38:59.180Z,51.70
2018-06-05T00:41:02.415Z,54.40
2018-06-05T00:43:05.731Z,54.03
2018-06-05T00:45:08.895Z,54.17
2018-06-05T00:47:12.108Z,56.30
2018-06-05T00:49:15.263Z,56.27
2018-06-05T00:51:30.017Z,54.63
2018-06-05T00:53:33.246Z,59.60
2018-06-05T00:55:36.433Z,60.37
2018-06-05T00:57:39.624Z,63.70
2018-06-05T00:59:42.884Z,65.63
2018-06-05T01:01:46.671Z,64.30
2018-06-05T01:03:49.846Z,67.90
2018-06-05T01:05:53.040Z,67.67
2018-06-05T01:07:56.254Z,72.90
2018-06-05T01:09:59.437Z,68.27
2018-06-05T01:12:02.676Z,68.37
2018-06-05T01:14:05.971Z,65.30
2018-06-05T01:16:09.175Z,66.83
2018-06-05T01:18:12.392Z,65.27
2018-06-05T01:20:15.539Z,68.90
2018-06-05T01:22:18.716Z,60.57
2018-06-05T01:24:21.956Z,65.03
2018-06-05T01:26:25.193Z,64.37
2018-06-05T01:28:28.447Z,65.40
2018-06-05T01:30:31.735Z,60.90
2018-06-05T01:32:34.927Z,63.07
2018-06-05T01:34:38.160Z,66.07
2018-06-05T01:36:41.381Z,62.70
2018-06-05T01:38:44.631Z,63.67
2018-06-05T01:40:47.839Z,64.93
2018-06-05T01:42:51.099Z,65.77
2018-06-05T01:44:54.276Z,58.97
2018-06-05T01:46:57.479Z,64.13
2018-06-05T01:49:01.300Z,57.67
2018-06-05T01:51:04.482Z,63.97
2018-06-05T01:53:07.720Z,60.40
2018-06-05T01:55:10.860Z,55.90
2018-06-05T01:57:14.050Z,68.70
2018-06-05T01:59:17.205Z,64.83
2018-06-05T02:01:20.372Z,64.30
2018-06-05T02:03:23.555Z,60.87
2018-06-05T02:05:26.692Z,65.60
2018-06-05T02:07:29.965Z,63.10
2018-06-05T02:09:33.148Z,64.17
2018-06-05T02:11:36.327Z,65.03
2018-06-05T02:13:39.470Z,58.10
2018-06-05T02:15:42.662Z,62.13
2018-06-05T02:17:45.936Z,59.70
2018-06-05T02:19:49.153Z,59.03
2018-06-05T02:21:53.023Z,60.63
2018-06-05T02:23:56.196Z,61.70
2018-06-05T02:25:59.365Z,54.60
2018-06-05T02:28:02.586Z,55.20
2018-06-05T02:30:05.872Z,48.80
2018-06-05T02:32:09.020Z,50.23
2018-06-05T02:34:12.199Z,51.20
2018-06-05T02:36:15.401Z,51.93
2018-06-05T02:38:18.612Z,52.90
2018-06-05T02:40:21.788Z,51.47
2018-06-05T02:42:24.996Z,53.00
2018-06-05T02:44:28.189Z,49.30
2018-06-05T02:46:31.520Z,48.60
2018-06-05T02:48:34.776Z,48.80
2018-06-05T02:50:37.977Z,51.70
2018-06-05T02:52:41.148Z,50.67
2018-06-05T02:54:44.351Z,54.03
2018-06-05T02:56:47.543Z,55.90
2018-06-05T02:58:50.735Z,58.67
2018-06-05T03:00:53.897Z,54.47
2018-06-05T03:02:57.130Z,53.40
2018-06-05T03:05:00.369Z,58.40
2018-06-05T03:07:03.563Z,55.60
2018-06-05T03:09:07.633Z,58.90
2018-06-05T03:11:11.123Z,61.93
2018-06-05T03:13:14.350Z,61.30
2018-06-05T03:15:17.540Z,65.77
2018-06-05T03:17:20.728Z,62.97
2018-06-05T03:19:23.923Z,70.67
2018-06-05T03:21:27.100Z,65.80
2018-06-05T03:23:30.296Z,64.97
2018-06-05T03:25:33.769Z,62.40
2018-06-05T03:27:36.721Z,66.70
2018-06-05T03:29:39.940Z,61.17
2018-06-05T03:31:43.159Z,61.90
2018-06-05T03:33:46.350Z,57.30
2018-06-05T03:35:49.552Z,54.40
2018-06-05T03:37:52.788Z,42.87
2018-06-05T03:39:56.499Z,45.27
2018-06-05T03:41:59.675Z,44.27
2018-06-05T03:44:02.957Z,42.00
2018-06-05T03:46:06.271Z,38.33
2018-06-05T03:48:09.450Z,38.60
2018-06-05T03:50:12.683Z,40.00
2018-06-05T03:52:15.876Z,41.40
2018-06-05T03:54:19.089Z,37.17
2018-06-05T03:56:22.316Z,39.53
2018-06-05T03:58:25.506Z,37.90
2018-06-05T04:00:28.799Z,42.47
2018-06-05T04:02:31.999Z,36.60
2018-06-05T04:04:35.263Z,34.50
2018-06-05T04:06:38.452Z,38.50
2018-06-05T04:08:41.678Z,37.47
2018-06-05T04:10:44.951Z,38.10
2018-06-05T04:12:48.119Z,38.10
2018-06-05T04:14:51.315Z,40.93
2018-06-05T04:16:54.500Z,39.00
2018-06-05T04:18:57.748Z,41.43
2018-06-05T04:21:00.957Z,39.23
2018-06-05T04:23:04.788Z,39.93
2018-06-05T04:25:07.978Z,39.77
2018-06-05T04:27:11.272Z,41.33
2018-06-05T04:29:14.468Z,39.93
2018-06-05T04:31:17.680Z,37.80
2018-06-05T04:33:20.924Z,41.30
2018-06-05T04:35:24.121Z,39.93
2018-06-05T04:37:27.359Z,39.53
2018-06-05T04:39:30.525Z,41.50
2018-06-05T04:41:33.703Z,40.70
2018-06-05T04:43:36.889Z,42.40
2018-06-05T04:45:40.832Z,42.00
2018-06-05T04:47:44.034Z,37.97
2018-06-05T04:49:47.803Z,41.30
2018-06-05T04:51:51.023Z,39.87
2018-06-05T04:53:54.288Z,35.63
2018-06-05T04:55:57.473Z,38.43
2018-06-05T04:58:00.434Z,38.50
2018-06-05T05:00:03.665Z,38.47
2018-06-05T05:02:06.849Z,37.93
2018-06-05T05:04:10.057Z,37.50
2018-06-05T05:06:13.221Z,37.60
2018-06-05T05:08:16.415Z,39.23
2018-06-05T05:10:19.592Z,41.53
2018-06-05T05:12:22.775Z,45.80
2018-06-05T05:14:25.762Z,49.03
2018-06-05T05:16:28.692Z,45.43
2018-06-05T05:18:31.818Z,51.07
2018-06-05T05:20:34.959Z,50.47
2018-06-05T05:22:38.092Z,50.27
2018-06-05T05:24:41.240Z,50.60
2018-06-05T05:26:44.386Z,53.47
2018-06-05T05:28:47.548Z,56.60
2018-06-05T05:30:50.739Z,54.80
2018-06-05T05:32:53.844Z,55.03
2018-06-05T05:34:56.984Z,50.13
2018-06-05T05:37:00.116Z,56.13
2018-06-05T05:39:03.477Z,49.43
2018-06-05T05:41:06.633Z,48.03
2018-06-05T05:43:09.800Z,48.33
2018-06-05T05:45:12.958Z,50.37
2018-06-05T05:47:16.141Z,49.10
2018-06-05T05:49:19.288Z,49.60
2018-06-05T05:51:22.438Z,49.67
2018-06-05T05:53:25.593Z,48.07
2018-06-05T05:55:28.755Z,45.10
2018-06-05T05:57:31.891Z,49.70
2018-06-05T05:59:35.044Z,45.87
2018-06-05T06:01:38.195Z,43.57
2018-06-05T06:03:41.373Z,42.13
2018-06-05T06:05:44.517Z,43.63
2018-06-05T06:07:47.648Z,42.37
2018-06-05T06:09:51.276Z,43.83
2018-06-05T06:11:54.436Z,42.27
2018-06-05T06:13:57.611Z,46.07
2018-06-05T06:16:00.799Z,44.80
2018-06-05T06:18:03.968Z,49.70
2018-06-05T06:20:07.139Z,47.80
2018-06-05T06:22:10.284Z,48.87
2018-06-05T06:24:14.479Z,45.47
2018-06-05T06:26:17.925Z,45.40
2018-06-05T06:28:21.668Z,46.23
2018-06-05T06:30:24.804Z,46.00
2018-06-05T06:32:27.941Z,46.97
2018-06-05T06:34:31.704Z,44.30
2018-06-05T06:36:34.832Z,46.77
2018-06-05T06:38:38.092Z,46.07
2018-06-05T06:40:41.188Z,44.47
2018-06-05T06:42:44.476Z,46.20
2018-06-05T06:44:47.707Z,46.60
2018-06-05T06:46:50.840Z,47.00
2018-06-05T06:48:54.040Z,50.73
2018-06-05T06:50:57.139Z,51.10
2018-06-05T06:53:00.513Z,49.03
2018-06-05T06:55:03.640Z,47.20
2018-06-05T06:57:06.772Z,48.70
2018-06-05T06:59:09.917Z,52.10
2018-06-05T07:01:13.052Z,50.00
2018-06-05T07:03:16.192Z,51.37
2018-06-05T07:05:19.323Z,49.40
2018-06-05T07:07:22.557Z,47.20
2018-06-05T07:09:25.680Z,47.27
2018-06-05T07:11:28.826Z,49.17
2018-06-05T07:13:31.972Z,50.07
2018-06-05T07:15:35.129Z,47.80
2018-06-05T07:17:38.019Z,49.10
2018-06-05T07:19:41.156Z,50.97
2018-06-05T07:21:44.360Z,51.83
2018-06-05T07:23:47.500Z,46.27
2018-06-05T07:25:50.640Z,48.70
2018-06-05T07:27:53.785Z,51.17
2018-06-05T07:29:56.935Z,51.03
2018-06-05T07:32:00.082Z,48.33
2018-06-05T07:34:03.329Z,46.07
2018-06-05T07:36:06.574Z,47.10
2018-06-05T07:38:09.708Z,47.60
2018-06-05T07:40:12.862Z,47.47
2018-06-05T07:42:16.027Z,46.83
2018-06-05T07:44:19.171Z,45.40
2018-06-05T07:46:22.405Z,45.10
2018-06-05T07:48:25.556Z,43.40
2018-06-05T07:50:28.731Z,41.60
2018-06-05T07:52:31.901Z,40.00
2018-06-05T07:54:35.044Z,42.40
2018-06-05T07:56:38.211Z,43.33
2018-06-05T07:58:41.358Z,42.90
2018-06-05T08:00:44.505Z,42.67
2018-06-05T08:02:47.706Z,40.77
2018-06-05T08:04:50.659Z,39.20
2018-06-05T08:06:53.811Z,39.40
2018-06-05T08:08:57.047Z,46.10
2018-06-05T08:11:00.195Z,40.77
2018-06-05T08:13:03.343Z,41.13
2018-06-05T08:15:06.506Z,38.97
2018-06-05T08:17:09.668Z,39.87
2018-06-05T08:19:12.821Z,37.60
2018-06-05T08:21:15.972Z,36.27
2018-06-05T08:23:18.936Z,32.40
2018-06-05T08:25:22.092Z,29.80
2018-06-05T08:27:25.245Z,28.83
2018-06-05T08:29:28.411Z,30.47
2018-06-05T08:31:31.561Z,29.53
2018-06-05T08:33:34.717Z,28.13
2018-06-05T08:35:37.868Z,27.70
2018-06-05T08:37:41.037Z,28.50
2018-06-05T08:39:44.240Z,31.60
2018-06-05T08:41:47.370Z,30.33
2018-06-05T08:43:50.499Z,31.10
2018-06-05T08:45:53.632Z,31.83
2018-06-05T08:47:56.787Z,34.70
2018-06-05T08:49:59.699Z,32.00
2018-06-05T08:52:02.842Z,32.50
2018-06-05T08:54:06.023Z,33.63
2018-06-05T08:56:09.716Z,32.57
2018-06-05T08:58:12.840Z,33.10
2018-06-05T09:00:15.980Z,30.13
2018-06-05T09:02:19.112Z,30.37
2018-06-05T09:04:22.252Z,31.17
2018-06-05T09:06:25.424Z,31.67
2018-06-05T09:08:28.655Z,29.40
2018-06-05T09:10:31.863Z,33.03
2018-06-05T09:12:35.016Z,30.67
2018-06-05T09:14:40.730Z,28.53
2018-06-05T09:16:43.861Z,29.20
2018-06-05T09:18:46.763Z,30.70
2018-06-05T09:20:49.904Z,30.60
2018-06-05T09:22:53.049Z,32.23
2018-06-05T09:24:56.180Z,33.13
2018-06-05T09:26:59.327Z,31.00
2018-06-05T09:29:02.478Z,30.20
2018-06-05T09:31:05.584Z,30.30
2018-06-05T09:33:08.996Z,29.23
2018-06-05T09:35:12.123Z,27.60
2018-06-05T09:37:15.272Z,29.53
2018-06-05T09:39:18.510Z,28.40
2018-06-05T09:41:21.651Z,32.93
2018-06-05T09:43:24.820Z,28.87
2018-06-05T09:45:27.959Z,29.27
2018-06-05T09:47:31.124Z,29.93
2018-06-05T09:49:34.263Z,29.00
2018-06-05T09:51:37.421Z,30.13
2018-06-05T09:53:40.871Z,25.93
2018-06-05T09:55:44.008Z,27.30
2018-06-05T09:57:47.190Z,28.27
2018-06-05T09:59:50.304Z,27.97
2018-06-05T10:01:53.455Z,26.93
2018-06-05T10:03:56.636Z,27.07
2018-06-05T10:05:59.757Z,26.67
2018-06-05T10:08:02.916Z,26.27
2018-06-05T10:10:06.237Z,25.77
2018-06-05T10:12:09.396Z,28.30
2018-06-05T10:14:12.571Z,26.57
2018-06-05T10:16:15.676Z,26.00
2018-06-05T10:18:18.835Z,23.97
2018-06-05T10:20:22.049Z,25.83
2018-06-05T10:22:25.288Z,26.00
2018-06-05T10:24:28.436Z,25.87
2018-06-05T10:26:31.576Z,23.43
2018-06-05T10:28:34.752Z,25.00
2018-06-05T10:30:37.906Z,23.93
2018-06-05T10:32:41.056Z,24.00
2018-06-05T10:34:44.282Z,22.93
2018-06-05T10:36:47.375Z,25.53
2018-06-05T10:38:50.521Z,26.17
2018-06-05T10:40:53.869Z,24.73
2018-06-05T10:42:57.040Z,22.83
2018-06-05T10:45:00.191Z,23.50
2018-06-05T10:47:03.121Z,22.67
2018-06-05T10:49:06.363Z,23.30
2018-06-05T10:51:09.511Z,23.37
2018-06-05T10:53:12.680Z,23.63
2018-06-05T10:55:15.824Z,23.97
2018-06-05T10:57:18.790Z,21.70
2018-06-05T10:59:21.946Z,26.43
2018-06-05T11:01:25.101Z,24.20
2018-06-05T11:03:28.235Z,24.50
2018-06-05T11:05:31.380Z,25.07
2018-06-05T11:07:34.572Z,26.70
2018-06-05T11:09:37.719Z,24.37
2018-06-05T11:11:40.672Z,23.17
2018-06-05T11:13:44.680Z,24.20
2018-06-05T11:15:47.867Z,24.93
2018-06-05T11:17:51.024Z,27.40
2018-06-05T11:19:54.167Z,28.03
2018-06-05T11:21:57.315Z,27.00
2018-06-05T11:24:00.472Z,25.73
2018-06-05T11:26:03.626Z,25.30
2018-06-05T11:28:06.794Z,26.53
2018-06-05T11:30:09.972Z,26.43
2018-06-05T11:32:13.178Z,27.77
2018-06-05T11:34:16.346Z,27.30
2018-06-05T11:36:19.475Z,25.50
2018-06-05T11:38:22.628Z,27.27
2018-06-05T11:40:25.753Z,24.83
2018-06-05T11:42:28.879Z,25.87
2018-06-05T11:44:32.077Z,26.20
2018-06-05T11:46:35.244Z,26.30
2018-06-05T11:48:38.332Z,27.60
2018-06-05T11:50:41.471Z,27.37
2018-06-05T11:52:44.600Z,26.83
2018-06-05T11:54:47.780Z,28.47
2018-06-05T11:56:51.015Z,28.63
2018-06-05T11:58:54.156Z,26.93
2018-06-05T12:00:57.281Z,26.53
2018-06-05T12:03:00.412Z,27.70
2018-06-05T12:05:03.560Z,26.00
2018-06-05T12:07:06.696Z,28.20
2018-06-05T12:09:09.983Z,30.10
2018-06-05T12:11:13.204Z,29.67
2018-06-05T12:13:16.348Z,28.17
2018-06-05T12:15:19.505Z,27.70
2018-06-05T12:17:22.431Z,27.80
2018-06-05T12:19:25.580Z,27.77
2018-06-05T12:21:28.540Z,29.57
2018-06-05T12:23:31.691Z,28.40
2018-06-05T12:25:34.885Z,29.93
2018-06-05T12:27:37.964Z,28.00
2018-06-05T12:29:41.151Z,28.83
2018-06-05T12:31:44.275Z,28.70
2018-06-05T12:33:47.403Z,29.10
2018-06-05T12:35:50.544Z,30.30
2018-06-05T12:37:53.696Z,29.13
2018-06-05T12:39:56.951Z,29.57
2018-06-05T12:42:00.119Z,29.20
2018-06-05T12:44:03.692Z,27.40
2018-06-05T12:46:06.858Z,30.23
2018-06-05T12:48:10.010Z,29.70
2018-06-05T12:50:14.024Z,27.43
2018-06-05T12:52:17.174Z,27.40
2018-06-05T12:54:20.312Z,29.10
2018-06-05T12:56:23.512Z,29.13
2018-06-05T12:58:26.676Z,27.60
2018-06-05T13:00:29.827Z,26.90
2018-06-05T13:02:32.751Z,26.40
2018-06-05T13:04:35.927Z,26.40
2018-06-05T13:06:39.084Z,26.20
2018-06-05T13:08:42.219Z,26.80
2018-06-05T13:10:45.379Z,26.63
2018-06-05T13:12:48.540Z,27.67
2018-06-05T13:14:51.698Z,25.90
2018-06-05T13:16:54.853Z,25.40
2018-06-05T13:18:58.104Z,31.37
2018-06-05T13:21:01.265Z,29.37
2018-06-05T13:23:04.515Z,28.40
2018-06-05T13:25:07.556Z,27.37
2018-06-05T13:27:10.695Z,29.93
2018-06-05T13:29:13.848Z,28.97
2018-06-05T13:31:16.992Z,30.37
2018-06-05T13:33:20.129Z,25.27
2018-06-05T13:35:23.280Z,29.80
2018-06-05T13:37:26.427Z,28.40
2018-06-05T13:39:29.567Z,28.90
2018-06-05T13:41:32.483Z,28.10
2018-06-05T13:43:35.635Z,29.50
2018-06-05T13:45:38.802Z,27.37
2018-06-05T13:47:41.956Z,27.70
2018-06-05T13:49:45.114Z,26.97
2018-06-05T13:51:48.278Z,30.40
2018-06-05T13:53:52.092Z,29.60
2018-06-05T13:55:55.280Z,28.77
2018-06-05T13:57:58.424Z,25.67
2018-06-05T14:00:01.589Z,27.43
2018-06-05T14:02:04.753Z,28.13
2018-06-05T14:04:07.909Z,25.10
2018-06-05T14:06:11.103Z,25.63
2018-06-05T14:08:14.267Z,26.80
2018-06-05T14:10:17.412Z,28.27
2018-06-05T14:12:20.568Z,28.73
2018-06-05T14:14:23.716Z,27.83
2018-06-05T14:16:26.879Z,27.13
2018-06-05T14:18:30.036Z,28.50
2018-06-05T14:20:33.216Z,27.20
2018-06-05T14:22:36.364Z,28.87
2018-06-05T14:24:39.527Z,27.47
2018-06-05T14:26:42.724Z,27.47
2018-06-05T14:28:45.892Z,28.13
2018-06-05T14:30:49.071Z,30.63
2018-06-05T14:32:52.252Z,30.00
2018-06-05T14:34:55.497Z,31.50
2018-06-05T14:36:58.667Z,31.27
2018-06-05T14:39:01.841Z,29.40
2018-06-05T14:41:05.003Z,29.87
2018-06-05T14:43:08.172Z,29.10
2018-06-05T14:45:11.496Z,32.70
2018-06-05T14:47:14.508Z,35.30
2018-06-05T14:49:17.659Z,30.40
2018-06-05T14:51:20.850Z,33.30
2018-06-05T14:53:24.147Z,33.83
2018-06-05T14:55:27.300Z,30.10
2018-06-05T14:57:30.491Z,30.70
2018-06-05T14:59:33.656Z,31.07
2018-06-05T15:01:36.843Z,30.40
2018-06-05T15:03:40.024Z,33.40
2018-06-05T15:05:43.180Z,31.40
2018-06-05T15:07:46.324Z,31.90
2018-06-05T15:09:49.491Z,31.73
2018-06-05T15:11:52.698Z,33.50
2018-06-05T15:13:55.843Z,31.77
2018-06-05T15:15:59.061Z,32.60
2018-06-05T15:18:02.223Z,30.30
2018-06-05T15:20:05.408Z,31.80
2018-06-05T15:22:08.656Z,31.37
2018-06-05T15:24:11.865Z,31.43
2018-06-05T15:26:15.057Z,31.43
2018-06-05T15:28:18.219Z,33.10
2018-06-05T15:30:21.496Z,33.80
2018-06-05T15:32:24.679Z,35.60
2018-06-05T15:34:27.948Z,34.83
2018-06-05T15:36:31.156Z,35.70
2018-06-05T15:38:34.330Z,33.67
2018-06-05T15:40:37.520Z,35.50
2018-06-05T15:42:40.707Z,37.80
2018-06-05T15:44:43.889Z,32.60
2018-06-05T15:46:47.155Z,33.93
2018-06-05T15:48:50.353Z,32.87
2018-06-05T15:50:53.512Z,34.13
2018-06-05T15:52:56.808Z,33.20
2018-06-05T15:55:00.072Z,34.17
2018-06-05T15:57:03.368Z,33.93
2018-06-05T15:59:06.664Z,35.73
2018-06-05T16:01:09.823Z,32.73
2018-06-05T16:03:13.520Z,33.90
2018-06-05T16:05:16.790Z,32.40
2018-06-05T16:07:19.976Z,31.70
2018-06-05T16:09:23.128Z,33.13
2018-06-05T16:11:26.312Z,31.40
2018-06-05T16:13:29.456Z,33.50
2018-06-05T16:15:32.631Z,32.50
2018-06-05T16:17:36.327Z,31.83
2018-06-05T16:19:39.711Z,31.80
2018-06-05T16:21:42.616Z,35.67
2018-06-05T16:23:45.756Z,32.77
2018-06-05T16:25:48.739Z,35.07
2018-06-05T16:27:51.894Z,33.40
2018-06-05T16:29:55.066Z,34.77
2018-06-05T16:31:58.220Z,34.10
2018-06-05T16:34:01.359Z,33.97
2018-06-05T16:36:04.552Z,31.63
2018-06-05T16:38:07.706Z,30.37
2018-06-05T16:40:10.940Z,32.37
2018-06-05T16:42:14.635Z,33.33
2018-06-05T16:44:17.776Z,31.33
2018-06-05T16:46:20.900Z,32.67
2018-06-05T16:48:24.209Z,31.63
2018-06-05T16:50:27.648Z,33.00
2018-06-05T16:52:30.971Z,30.57
2018-06-05T16:54:34.088Z,30.40
2018-06-05T16:56:37.232Z,33.03
2018-06-05T16:58:40.386Z,30.53
2018-06-05T17:00:44.510Z,30.90
2018-06-05T17:02:47.664Z,30.03
2018-06-05T17:04:50.642Z,31.30
2018-06-05T17:06:53.745Z,32.73
2018-06-05T17:08:56.882Z,28.77
2018-06-05T17:11:00.029Z,28.97
2018-06-05T17:13:03.164Z,29.27
2018-06-05T17:15:06.308Z,29.27
2018-06-05T17:17:09.432Z,29.00
2018-06-05T17:19:12.558Z,27.70
2018-06-05T17:21:15.692Z,28.63
2018-06-05T17:23:18.851Z,25.80
2018-06-05T17:25:21.988Z,26.30
2018-06-05T17:27:25.153Z,23.13
2018-06-05T17:29:28.284Z,22.90
2018-06-05T17:31:31.424Z,24.00
2018-06-05T17:33:34.575Z,23.47
2018-06-05T17:35:37.730Z,22.30
2018-06-05T17:37:40.871Z,21.80
2018-06-05T17:39:44.024Z,22.27
2018-06-05T17:41:47.144Z,21.40
2018-06-05T17:43:50.298Z,21.23
2018-06-05T17:45:53.492Z,19.70
2018-06-05T17:47:56.418Z,21.30
2018-06-05T17:49:59.572Z,18.93
2018-06-05T17:52:02.582Z,19.60
2018-06-05T17:54:06.548Z,21.30
2018-06-05T17:56:09.676Z,21.23
2018-06-05T17:58:12.824Z,19.20
2018-06-05T18:00:15.964Z,20.13
2018-06-05T18:02:19.099Z,19.57
2018-06-05T18:04:22.551Z,18.70
2018-06-05T18:06:25.896Z,20.53
2018-06-05T18:08:29.047Z,19.00
2018-06-05T18:10:32.205Z,18.37
2018-06-05T18:12:35.480Z,17.97
2018-06-05T18:14:38.676Z,16.77
2018-06-05T18:16:41.823Z,16.77
2018-06-05T18:18:44.991Z,17.70
2018-06-05T18:20:48.137Z,17.70
2018-06-05T18:22:51.688Z,18.30
2018-06-05T18:24:54.840Z,18.43
2018-06-05T18:26:57.967Z,17.97
2018-06-05T18:29:02.968Z,17.90
2018-06-05T18:31:07.181Z,17.07
2018-06-05T18:33:10.315Z,17.50
2018-06-05T18:35:13.585Z,17.03
2018-06-05T18:37:16.863Z,16.77
2018-06-05T18:39:19.975Z,18.83
2018-06-05T18:41:23.608Z,17.73
2018-06-05T18:43:26.748Z,19.10
2018-06-05T18:45:29.920Z,19.67
2018-06-05T18:47:33.052Z,20.60
2018-06-05T18:49:35.988Z,19.80
2018-06-05T18:51:39.127Z,19.43
2018-06-05T18:53:42.095Z,19.33
2018-06-05T18:55:45.235Z,19.23
2018-06-05T18:57:48.514Z,21.00
2018-06-05T18:59:51.625Z,23.40
2018-06-05T19:01:54.767Z,21.97
2018-06-05T19:03:57.972Z,24.00
2018-06-05T19:06:01.099Z,22.80
2018-06-05T19:08:04.264Z,22.80
2018-06-05T19:10:07.513Z,21.83
2018-06-05T19:12:10.710Z,21.30
2018-06-05T19:14:13.836Z,23.50
2018-06-05T19:16:17.017Z,21.30
2018-06-05T19:18:20.159Z,24.60
2018-06-05T19:20:23.345Z,25.17
2018-06-05T19:22:26.682Z,25.80
2018-06-05T19:24:29.851Z,27.10
2018-06-05T19:26:33.131Z,24.27
2018-06-05T19:28:36.402Z,23.63
2018-06-05T19:30:39.540Z,24.70
2018-06-05T19:32:42.675Z,23.17
2018-06-05T19:34:45.839Z,25.17
2018-06-05T19:36:51.216Z,24.53
2018-06-05T19:38:55.188Z,23.37
2018-06-05T19:40:58.453Z,25.20
2018-06-05T19:43:01.620Z,25.40
2018-06-05T19:45:05.199Z,26.00
2018-06-05T19:47:08.718Z,26.17
2018-06-05T19:49:11.914Z,26.73
2018-06-05T19:51:15.113Z,27.30
2018-06-05T19:53:18.256Z,26.17
2018-06-05T19:55:21.508Z,26.30
2018-06-05T19:57:26.691Z,26.90
2018-06-05T19:59:30.420Z,28.13
2018-06-05T20:01:33.565Z,25.57
2018-06-05T20:03:36.761Z,27.80
2018-06-05T20:05:39.980Z,27.80
2018-06-05T20:07:43.141Z,29.10
2018-06-05T20:09:46.355Z,28.33
2018-06-05T20:11:49.508Z,29.90
2018-06-05T20:13:52.664Z,27.93
2018-06-05T20:15:55.819Z,31.63
2018-06-05T20:17:59.013Z,32.63
2018-06-05T20:20:02.597Z,32.00
2018-06-05T20:22:08.214Z,30.13
2018-06-05T20:24:11.506Z,31.60
2018-06-05T20:26:14.722Z,30.57
2018-06-05T20:28:17.882Z,30.23
2018-06-05T20:30:21.451Z,30.37
2018-06-05T20:32:24.611Z,28.93
2018-06-05T20:34:27.792Z,31.00
2018-06-05T20:36:30.703Z,30.57
2018-06-05T20:38:33.868Z,32.27
2018-06-05T20:40:37.870Z,29.93
2018-06-05T20:42:41.029Z,32.37
2018-06-05T20:44:44.200Z,30.27
2018-06-05T20:46:47.351Z,31.40
2018-06-05T20:48:51.361Z,32.20
2018-06-05T20:50:54.447Z,30.37
2018-06-05T20:52:58.887Z,29.93
2018-06-05T20:55:02.091Z,30.73
2018-06-05T20:57:05.959Z,30.03
2018-06-05T20:59:09.093Z,29.30
2018-06-05T21:01:12.231Z,32.10
2018-06-05T21:03:15.348Z,28.60
2018-06-05T21:05:18.497Z,29.97
2018-06-05T21:07:21.612Z,30.67
2018-06-05T21:09:24.761Z,30.10
2018-06-05T21:11:27.892Z,30.73
2018-06-05T21:13:31.076Z,31.07
2018-06-05T21:15:34.232Z,31.17
2018-06-05T21:17:37.391Z,31.10
2018-06-05T21:19:40.598Z,32.43
2018-06-05T21:21:44.356Z,29.67
2018-06-05T21:23:47.492Z,30.10
2018-06-05T21:25:50.620Z,30.90
2018-06-05T21:27:53.788Z,30.90
2018-06-05T21:29:56.907Z,34.97
2018-06-05T21:32:00.052Z,33.57
2018-06-05T21:34:03.194Z,30.57
2018-06-05T21:36:06.091Z,32.60
2018-06-05T21:38:09.255Z,33.03
2018-06-05T21:40:12.224Z,31.07
2018-06-05T21:42:15.380Z,32.67
2018-06-05T21:44:18.536Z,32.13
2018-06-05T21:46:21.685Z,34.43
2018-06-05T21:48:24.830Z,35.30
2018-06-05T21:50:27.972Z,37.17
2018-06-05T21:52:31.116Z,36.80
2018-06-05T21:54:34.281Z,35.73
2018-06-05T21:56:37.440Z,36.80
2018-06-05T21:58:40.595Z,35.60
2018-06-05T22:00:43.752Z,34.27
2018-06-05T22:02:46.900Z,34.30
2018-06-05T22:04:50.067Z,31.07
2018-06-05T22:06:53.216Z,36.57
2018-06-05T22:08:56.352Z,34.13
2018-06-05T22:10:59.524Z,35.50
2018-06-05T22:13:02.663Z,33.80
2018-06-05T22:15:05.824Z,32.23
2018-06-05T22:17:09.635Z,35.17
2018-06-05T22:19:12.807Z,34.90
2018-06-05T22:21:15.956Z,32.70
2018-06-05T22:23:19.143Z,35.83
2018-06-05T22:25:22.304Z,33.57
2018-06-05T22:27:25.496Z,32.90
2018-06-05T22:29:28.639Z,31.90
2018-06-05T22:31:31.860Z,31.00
2018-06-05T22:33:35.025Z,31.37
2018-06-05T22:35:38.172Z,31.23
2018-06-05T22:37:41.332Z,32.27
2018-06-05T22:39:44.492Z,32.83
2018-06-05T22:41:47.635Z,32.87
2018-06-05T22:43:50.553Z,34.67
2018-06-05T22:45:53.691Z,32.47
2018-06-05T22:47:56.827Z,32.90
2018-06-05T22:50:00.011Z,32.50
2018-06-05T22:52:03.148Z,37.23
2018-06-05T22:54:06.335Z,40.13
2018-06-05T22:56:09.480Z,40.40
2018-06-05T22:58:12.612Z,41.40
2018-06-05T23:00:26.924Z,41.63
2018-06-05T23:02:30.128Z,40.20
2018-06-05T23:04:33.261Z,41.57
2018-06-05T23:06:36.420Z,39.40
2018-06-05T23:08:39.707Z,39.40
2018-06-05T23:10:42.881Z,37.67
2018-06-05T23:12:46.031Z,37.37
2018-06-05T23:14:49.180Z,38.80
2018-06-05T23:16:52.327Z,38.80
2018-06-05T23:18:55.452Z,37.17
2018-06-05T23:20:58.696Z,37.27
2018-06-05T23:23:01.918Z,38.47
2018-06-05T23:25:05.959Z,38.50
2018-06-05T23:27:09.239Z,40.43
2018-06-05T23:29:12.400Z,42.10
2018-06-05T23:31:15.541Z,41.13
2018-06-05T23:33:18.681Z,40.67
2018-06-05T23:35:21.880Z,41.37
2018-06-05T23:37:25.024Z,43.73
2018-06-05T23:39:28.285Z,42.47
2018-06-05T23:41:31.195Z,42.57
2018-06-05T23:43:34.348Z,40.33
2018-06-05T23:45:37.504Z,38.83
2018-06-05T23:47:40.652Z,38.20
2018-06-05T23:49:43.812Z,39.97
2018-06-05T23:51:46.956Z,40.77
2018-06-05T23:53:50.103Z,40.03
2018-06-05T23:55:53.284Z,41.57
2018-06-05T23:57:56.448Z,42.63
2018-06-05T23:59:59.596Z,44.23
